ADDS METAR Data INFO
IDs: Format: Raw Decoded Include TAF

Data at: 1029 UTC 23 Feb 2018

KPPA 231015Z AUTO 21009KT 10SM CLR 00/M02 A3009 RMK AO2 T10011019
KPPA 230955Z AUTO 18009KT 10SM CLR 00/M02 A3009 RMK AO2 T10011019
KPPA 230935Z AUTO 28007KT 10SM CLR 00/M02 A3008 RMK AO2 T10051022
KPPA 230915Z AUTO 28008KT 10SM CLR M01/M02 A3009 RMK AO2 T10081022
KPPA 230855Z AUTO 25007KT 10SM CLR M01/M02 A3010 RMK AO2 T10071023
KPPA 230835Z AUTO 25007KT 10SM CLR 00/M02 A3011 RMK AO2 T10031018
KPPA 230815Z AUTO 25004KT 10SM CLR 00/M02 A3011 RMK AO2 T10051023
KPPA 230755Z AUTO 29007KT 10SM CLR 01/M01 A3011 RMK AO2 T00081012
KPPA 230735Z AUTO 24007KT 10SM CLR 01/M01 A3011 RMK AO2 T00091010
KPPA 230715Z AUTO 25008KT 10SM CLR 02/00 A3012 RMK AO2 T00181002
KPPA 230655Z AUTO 23009KT 10SM CLR 02/00 A3011 RMK AO2 T00210000
KPPA 230635Z AUTO 20010KT 10SM CLR 02/00 A3011 RMK AO2 T00151001
KPPA 230615Z AUTO 20011KT 10SM CLR 01/00 A3010 RMK AO2 T00130000
KPPA 230555Z AUTO 20011KT 10SM CLR 02/00 A3011 RMK AO2 T00150000 10036 20001 400661060
KPPA 230535Z AUTO 20011KT 10SM CLR 01/00 A3011 RMK AO2 T00130000
KPPA 230515Z AUTO 19012KT 10SM CLR 01/00 A3011 RMK AO2 T00080000
KPPA 230455Z AUTO 19013KT 10SM CLR 01/00 A3011 RMK AO2 T00070000
KPPA 230435Z AUTO 19013KT 10SM CLR 01/00 A3010 RMK AO2 T00070000
KPPA 230415Z AUTO 19014KT 10SM CLR 01/00 A3010 RMK AO2 T00070000
KPPA 230355Z AUTO 19013KT 10SM CLR 01/00 A3009 RMK AO2 T00050000
KPPA 230335Z AUTO 19014KT 10SM CLR 00/00 A3008 RMK AO2 T00031001
KPPA 230315Z AUTO 19015KT 7SM CLR 00/00 A3008 RMK AO2 T00031001
KPPA 230255Z AUTO 18016KT 10SM CLR 00/00 A3007 RMK AO2 T00021003
KPPA 230235Z AUTO 18016KT 10SM CLR 00/M01 A3007 RMK AO2 T00021006
KPPA 230215Z AUTO 18016KT 10SM CLR 01/M01 A3007 RMK AO2 T00051006
KPPA 230155Z AUTO 18018KT 10SM CLR 01/M01 A3006 RMK AO2 T00071007
KPPA 230135Z AUTO 17017KT 10SM CLR 01/M01 A3005 RMK AO2 T00121006
KPPA 230115Z AUTO 17016KT 10SM CLR 02/00 A3005 RMK AO2 T00171005
KPPA 230055Z AUTO 17015KT 10SM CLR 02/00 A3005 RMK AO2 T00201005
KPPA 230035Z AUTO 17014KT 10SM CLR 03/00 A3006 RMK AO2 T00261005
KPPA 230015Z AUTO 17013KT 10SM CLR 03/M01 A3005 RMK AO2 T00321006
KPPA 222355Z AUTO 18013KT 10SM CLR 04/M01 A3005 RMK AO2 T00361007 10066 21015
KPPA 222335Z AUTO 17014KT 10SM CLR 05/00 A3005 RMK AO2 T00461004
KPPA 222315Z AUTO 17014KT 10SM CLR 06/00 A3004 RMK AO2 T00561002
KPPA 222255Z AUTO 17016KT 10SM CLR 06/00 A3003 RMK AO2 T00551001
KPPA 222235Z AUTO 17012G17KT 10SM CLR 06/00 A3003 RMK AO2 T00591001
KPPA 222215Z AUTO 18012KT 10SM CLR 07/00 A3005 RMK AO2 T00651004
KPPA 222155Z AUTO 17012G16KT 10SM CLR 06/00 A3005 RMK AO2 T00621003
KPPA 222135Z AUTO 18010KT 10SM SCT018 06/00 A3005 RMK AO2 T00601005
KPPA 222115Z AUTO 18012KT 10SM BKN016 05/00 A3006 RMK AO2 T00481003
KPPA 222055Z AUTO 17010G15KT 10SM OVC016 04/M01 A3007 RMK AO2 T00391006
KPPA 222035Z AUTO 18009KT 10SM BKN012 OVC019 04/M01 A3007 RMK AO2 T00361006
KPPA 222015Z AUTO 17011G16KT 10SM BKN010 OVC021 03/M01 A3008 RMK AO2 T00301007
KPPA 221955Z AUTO 17010KT 10SM BKN008 OVC021 02/M01 A3010 RMK AO2 T00231011
KPPA 221935Z AUTO 17010KT 10SM OVC008 01/M01 A3012 RMK AO2 T00121012
KPPA 221915Z AUTO 17008KT 10SM OVC006 00/M01 A3013 RMK AO2 LTG DSNT SE T00021015
KPPA 221855Z AUTO 17006KT 10SM OVC006 00/M02 A3014 RMK AO2 T10031016
KPPA 221835Z AUTO 15007KT 7SM OVC006 M01/M02 A3016 RMK AO2 T10071016
KPPA 221815Z AUTO 17007KT 10SM OVC006 M01/M02 A3018 RMK AO2 T10101017
KPPA 221755Z AUTO 17007KT 10SM OVC006 M01/M02 A3018 RMK AO2 T10141021 11014 21050
KPPA 221735Z AUTO 16005KT 10SM OVC006 M02/M02 A3019 RMK AO2 T10161023
KPPA 221715Z AUTO 17004KT 10SM OVC006 M02/M03 A3019 RMK AO2 T10201026
KPPA 221655Z AUTO 16005KT 10SM OVC006 M02/M03 A3019 RMK AO2 T10221029
KPPA 221635Z AUTO 14004KT 10SM OVC006 M02/M03 A3019 RMK AO2 T10251031
KPPA 221615Z AUTO 00000KT 10SM OVC006 M03/M03 A3019 RMK AO2 T10281035
KPPA 221555Z AUTO 12004KT 10SM OVC004 M03/M04 A3018 RMK AO2 T10301037
KPPA 221535Z AUTO 00000KT 10SM OVC004 M03/M04 A3018 RMK AO2 T10341040
KPPA 221515Z AUTO 04003KT 10SM BKN004 OVC020 M03/M04 A3017 RMK AO2 T10351043
KPPA 221455Z AUTO 02005KT 10SM BKN004 OVC018 M04/M05 A3016 RMK AO2 T10381046
KPPA 221435Z AUTO 00000KT 10SM BKN004 BKN009 OVC013 M04/M05 A3018 RMK AO2 LTG DSNT E T10401048
KPPA 221415Z AUTO 08003KT 10SM BKN004 OVC014 M04/M05 A3018 RMK AO2 T10421050
KPPA 221355Z AUTO 06005KT 10SM BKN004 OVC016 M04/M05 A3017 RMK AO2 LTG DSNT SE T10431051
KPPA 221335Z AUTO 05005KT 7SM BKN004 OVC018 M04/M05 A3017 RMK AO2 LTG DSNT S T10451052
KPPA 221315Z AUTO 00000KT 10SM BKN004 OVC022 M04/M05 A3021 RMK AO2 T10451053
KPPA 221255Z AUTO 00000KT 10SM SCT004 OVC026 M05/M05 A3021 RMK AO2 T10461055
KPPA 221235Z AUTO 00000KT 7SM BKN004 BKN008 OVC026 M05/M06 A3022 RMK AO2 T10471056
KPPA 221215Z AUTO 00000KT 5SM BR BKN004 OVC008 M05/M06 A3023 RMK AO2 T10481057
KPPA 221155Z AUTO 00000KT 3SM BR OVC002 M05/M06 A3022 RMK AO2 T10501058 11049 21060
KPPA 221135Z AUTO 00000KT 2 1/2SM BR OVC002 M05/M06 A3024 RMK AO2 T10501058
KPPA 221115Z AUTO 00000KT 2 1/2SM BR OVC002 M05/M06 A3024 RMK AO2 T10501059
KPPA 221055Z AUTO 00000KT 2SM BR OVC002 M05/M06 A3022 RMK AO2 T10501060
KPPA 221035Z AUTO 00000KT 2SM BR OVC002 M05/M06 A3022 RMK AO2 T10511060
KPPA 221015Z AUTO 00000KT 2SM BR OVC002 M05/M06 A3024 RMK AO2 T10521060
KPPA 220955Z AUTO 00000KT 1 3/4SM BR OVC002 M05/M06 A3023 RMK AO2 T10531061
KPPA 220935Z AUTO 02003KT 2 1/2SM BR OVC002 M05/M06 A3022 RMK AO2 T10551063
KPPA 220915Z AUTO 05006KT 3SM BR OVC002 M05/M06 A3020 RMK AO2 T10551063
KPPA 220855Z AUTO 04006KT 3SM BR OVC002 M05/M06 A3021 RMK AO2 T10551063
KPPA 220835Z AUTO 03005KT 1 1/2SM BR OVC002 M05/M06 A3023 RMK AO2 T10551063
KPPA 220815Z AUTO 02004KT 1 3/4SM BR OVC004 M05/M06 A3023 RMK AO2 T10551065
KPPA 220755Z AUTO 02003KT 2SM BR OVC004 M06/M06 A3024 RMK AO2 T10561065
KPPA 220735Z AUTO 02004KT 7SM OVC004 M06/M07 A3025 RMK AO2 T10571066
KPPA 220715Z AUTO 03003KT 7SM OVC004 M06/M07 A3025 RMK AO2 T10581067
KPPA 220655Z AUTO 04006KT 5SM BR BKN004 OVC014 M06/M07 A3024 RMK AO2 T10581067
KPPA 220635Z AUTO 05006KT 5SM BR BKN004 BKN010 OVC021 M06/M07 A3025 RMK AO2 T10581067
KPPA 220615Z AUTO 36003KT 3SM BR OVC004 M06/M07 A3028 RMK AO2 T10581067
KPPA 220555Z AUTO 36004KT 3SM BR OVC004 M06/M07 A3028 RMK AO2 T10591068 11032 21061 410151090
KPPA 220535Z AUTO 02003KT 5SM BR OVC004 M06/M07 A3028 RMK AO2 T10601070
KPPA 220515Z AUTO 04004KT 5SM BR OVC004 M06/M07 A3027 RMK AO2 T10601070
KPPA 220455Z AUTO 02003KT 2 1/2SM BR OVC004 M06/M07 A3028 RMK AO2 T10601068
KPPA 220435Z AUTO 02004KT 3SM BR BKN004 OVC008 M06/M07 A3028 RMK AO2 T10601070
KPPA 220415Z AUTO 03005KT 5SM BR OVC006 M06/M07 A3028 RMK AO2 T10601070
KPPA 220355Z AUTO 06004KT 4SM BR BKN006 OVC013 M06/M07 A3028 RMK AO2 T10601070
KPPA 220035Z AUTO 05009KT 10SM UP OVC042 M04/M12 A3027 RMK AO2 T10401117
KPPA 220015Z AUTO 07010KT 10SM UP SCT018 BKN022 OVC040 M03/M13 A3027 RMK AO2 T10351134
KPPA 212355Z AUTO 06007KT 10SM BKN018 OVC027 M03/M14 A3028 RMK AO2 T10321145 11015 21032
KPPA 212335Z AUTO 05007KT 10SM BKN018 OVC025 M03/M15 A3028 RMK AO2 T10321153
KPPA 212315Z AUTO 05011KT 10SM OVC018 M03/M16 A3029 RMK AO2 T10301158
KPPA 212255Z AUTO 04010KT 10SM OVC020 M03/M16 A3028 RMK AO2 T10261159
KPPA 212235Z AUTO 03009KT 10SM BKN020 OVC031 M02/M16 A3029 RMK AO2 T10251160